sensor_id;sensor_type;location;lat;lon;timestamp;P1;durP1;ratioP1;P2;durP2;ratioP2
20729;SDS011;10526;50.850;12.928;2022-08-03T00:01:43;11.10;;;5.45;;
20729;SDS011;10526;50.850;12.928;2022-08-03T00:06:05;12.55;;;5.28;;
20729;SDS011;10526;50.850;12.928;2022-08-03T00:10:27;12.13;;;5.13;;
20729;SDS011;10526;50.850;12.928;2022-08-03T00:14:50;10.30;;;4.85;;
20729;SDS011;10526;50.850;12.928;2022-08-03T00:19:14;10.57;;;5.30;;
20729;SDS011;10526;50.850;12.928;2022-08-03T00:23:36;10.70;;;5.03;;
20729;SDS011;10526;50.850;12.928;2022-08-03T00:28:13;11.48;;;5.10;;
20729;SDS011;10526;50.850;12.928;2022-08-03T00:32:35;10.13;;;5.22;;
20729;SDS011;10526;50.850;12.928;2022-08-03T00:37:05;13.02;;;5.50;;
20729;SDS011;10526;50.850;12.928;2022-08-03T00:41:27;10.40;;;5.40;;
20729;SDS011;10526;50.850;12.928;2022-08-03T00:45:49;9.48;;;5.18;;
20729;SDS011;10526;50.850;12.928;2022-08-03T00:50:12;13.35;;;5.68;;
20729;SDS011;10526;50.850;12.928;2022-08-03T00:54:39;10.90;;;5.20;;
20729;SDS011;10526;50.850;12.928;2022-08-03T00:59:01;10.32;;;5.38;;
20729;SDS011;10526;50.850;12.928;2022-08-03T01:03:24;12.52;;;5.60;;
20729;SDS011;10526;50.850;12.928;2022-08-03T01:17:33;11.15;;;5.68;;
20729;SDS011;10526;50.850;12.928;2022-08-03T01:27:53;12.25;;;5.90;;
20729;SDS011;10526;50.850;12.928;2022-08-03T01:32:45;10.55;;;5.47;;
20729;SDS011;10526;50.850;12.928;2022-08-03T01:37:24;10.13;;;5.50;;
20729;SDS011;10526;50.850;12.928;2022-08-03T01:41:57;10.38;;;5.35;;
20729;SDS011;10526;50.850;12.928;2022-08-03T01:46:26;11.65;;;5.80;;
20729;SDS011;10526;50.850;12.928;2022-08-03T01:50:50;10.00;;;5.97;;
20729;SDS011;10526;50.850;12.928;2022-08-03T01:55:16;9.55;;;5.40;;
20729;SDS011;10526;50.850;12.928;2022-08-03T01:59:41;12.13;;;5.65;;
20729;SDS011;10526;50.850;12.928;2022-08-03T02:04:04;11.68;;;5.53;;
20729;SDS011;10526;50.850;12.928;2022-08-03T02:08:27;13.13;;;6.10;;
20729;SDS011;10526;50.850;12.928;2022-08-03T02:12:52;10.73;;;6.00;;
20729;SDS011;10526;50.850;12.928;2022-08-03T02:17:15;12.40;;;5.38;;
20729;SDS011;10526;50.850;12.928;2022-08-03T02:21:59;13.50;;;6.07;;
20729;SDS011;10526;50.850;12.928;2022-08-03T02:26:22;11.38;;;6.03;;
20729;SDS011;10526;50.850;12.928;2022-08-03T02:30:51;13.10;;;6.80;;
20729;SDS011;10526;50.850;12.928;2022-08-03T02:35:16;12.20;;;6.28;;
20729;SDS011;10526;50.850;12.928;2022-08-03T02:39:41;13.90;;;6.50;;
20729;SDS011;10526;50.850;12.928;2022-08-03T02:44:06;12.32;;;6.88;;
20729;SDS011;10526;50.850;12.928;2022-08-03T02:48:30;13.93;;;7.38;;
20729;SDS011;10526;50.850;12.928;2022-08-03T02:52:54;11.35;;;6.50;;
20729;SDS011;10526;50.850;12.928;2022-08-03T02:57:19;13.25;;;6.93;;
20729;SDS011;10526;50.850;12.928;2022-08-03T03:01:43;13.85;;;7.55;;
20729;SDS011;10526;50.850;12.928;2022-08-03T03:06:06;12.98;;;6.72;;
20729;SDS011;10526;50.850;12.928;2022-08-03T03:10:29;12.43;;;6.57;;
20729;SDS011;10526;50.850;12.928;2022-08-03T03:14:51;12.07;;;7.57;;
20729;SDS011;10526;50.850;12.928;2022-08-03T03:19:13;12.30;;;6.43;;
20729;SDS011;10526;50.850;12.928;2022-08-03T03:23:37;11.85;;;7.03;;
20729;SDS011;10526;50.850;12.928;2022-08-03T03:28:01;13.02;;;6.85;;
20729;SDS011;10526;50.850;12.928;2022-08-03T03:32:27;14.15;;;7.25;;
20729;SDS011;10526;50.850;12.928;2022-08-03T03:36:49;13.10;;;6.57;;
20729;SDS011;10526;50.850;12.928;2022-08-03T03:41:12;14.63;;;6.60;;
20729;SDS011;10526;50.850;12.928;2022-08-03T03:45:34;15.00;;;6.97;;
20729;SDS011;10526;50.850;12.928;2022-08-03T03:49:57;14.10;;;6.70;;
20729;SDS011;10526;50.850;12.928;2022-08-03T03:54:19;10.20;;;6.38;;
20729;SDS011;10526;50.850;12.928;2022-08-03T03:58:45;15.85;;;6.78;;
20729;SDS011;10526;50.850;12.928;2022-08-03T04:03:09;12.77;;;6.60;;
20729;SDS011;10526;50.850;12.928;2022-08-03T04:07:37;11.88;;;5.38;;
20729;SDS011;10526;50.850;12.928;2022-08-03T04:12:38;7.85;;;4.05;;
20729;SDS011;10526;50.850;12.928;2022-08-03T04:17:10;16.88;;;4.45;;
20729;SDS011;10526;50.850;12.928;2022-08-03T04:21:36;9.95;;;4.22;;
20729;SDS011;10526;50.850;12.928;2022-08-03T04:26:02;9.35;;;4.22;;
20729;SDS011;10526;50.850;12.928;2022-08-03T04:30:28;9.93;;;3.58;;
20729;SDS011;10526;50.850;12.928;2022-08-03T04:34:54;8.75;;;3.45;;
20729;SDS011;10526;50.850;12.928;2022-08-03T04:39:22;10.30;;;3.55;;
20729;SDS011;10526;50.850;12.928;2022-08-03T04:43:47;9.27;;;3.78;;
20729;SDS011;10526;50.850;12.928;2022-08-03T04:48:11;10.77;;;3.75;;
20729;SDS011;10526;50.850;12.928;2022-08-03T04:52:35;6.50;;;3.30;;
20729;SDS011;10526;50.850;12.928;2022-08-03T04:56:58;7.32;;;3.30;;
20729;SDS011;10526;50.850;12.928;2022-08-03T05:01:19;8.88;;;3.08;;
20729;SDS011;10526;50.850;12.928;2022-08-03T05:05:43;10.73;;;3.10;;
20729;SDS011;10526;50.850;12.928;2022-08-03T05:10:10;7.32;;;2.90;;
20729;SDS011;10526;50.850;12.928;2022-08-03T05:14:37;10.45;;;2.88;;
20729;SDS011;10526;50.850;12.928;2022-08-03T05:18:59;9.32;;;3.28;;
20729;SDS011;10526;50.850;12.928;2022-08-03T05:23:20;7.93;;;3.10;;
20729;SDS011;10526;50.850;12.928;2022-08-03T05:27:42;10.60;;;3.25;;
20729;SDS011;10526;50.850;12.928;2022-08-03T05:32:04;13.85;;;3.35;;
20729;SDS011;10526;50.850;12.928;2022-08-03T05:36:28;5.82;;;2.72;;
20729;SDS011;10526;50.850;12.928;2022-08-03T05:40:50;8.43;;;2.70;;
20729;SDS011;10526;50.850;12.928;2022-08-03T05:45:32;7.68;;;2.17;;
20729;SDS011;10526;50.850;12.928;2022-08-03T05:49:54;5.38;;;2.58;;
20729;SDS011;10526;50.850;12.928;2022-08-03T05:54:17;7.30;;;2.63;;
20729;SDS011;10526;50.850;12.928;2022-08-03T05:58:39;6.57;;;2.50;;
20729;SDS011;10526;50.850;12.928;2022-08-03T06:03:01;8.80;;;3.05;;
20729;SDS011;10526;50.850;12.928;2022-08-03T06:07:22;6.57;;;2.42;;
20729;SDS011;10526;50.850;12.928;2022-08-03T06:11:45;6.38;;;2.35;;
20729;SDS011;10526;50.850;12.928;2022-08-03T06:16:07;6.88;;;2.40;;
20729;SDS011;10526;50.850;12.928;2022-08-03T06:20:29;7.78;;;2.55;;
20729;SDS011;10526;50.850;12.928;2022-08-03T06:24:51;7.63;;;2.88;;
20729;SDS011;10526;50.850;12.928;2022-08-03T06:29:14;8.32;;;2.60;;
20729;SDS011;10526;50.850;12.928;2022-08-03T06:33:36;10.75;;;2.78;;
20729;SDS011;10526;50.850;12.928;2022-08-03T06:38:18;10.07;;;2.80;;
20729;SDS011;10526;50.850;12.928;2022-08-03T06:42:41;11.50;;;2.80;;
20729;SDS011;10526;50.850;12.928;2022-08-03T06:47:04;15.50;;;3.15;;
20729;SDS011;10526;50.850;12.928;2022-08-03T06:51:26;9.45;;;2.63;;
20729;SDS011;10526;50.850;12.928;2022-08-03T06:56:08;5.47;;;2.10;;
20729;SDS011;10526;50.850;12.928;2022-08-03T07:00:30;8.18;;;2.90;;
20729;SDS011;10526;50.850;12.928;2022-08-03T07:04:52;9.55;;;2.47;;
20729;SDS011;10526;50.850;12.928;2022-08-03T07:09:14;7.05;;;2.22;;
20729;SDS011;10526;50.850;12.928;2022-08-03T07:13:36;9.82;;;2.35;;
20729;SDS011;10526;50.850;12.928;2022-08-03T07:18:01;8.02;;;2.38;;
20729;SDS011;10526;50.850;12.928;2022-08-03T07:22:23;10.88;;;2.45;;
20729;SDS011;10526;50.850;12.928;2022-08-03T07:26:46;8.30;;;2.30;;
20729;SDS011;10526;50.850;12.928;2022-08-03T07:31:08;4.25;;;1.73;;
20729;SDS011;10526;50.850;12.928;2022-08-03T07:35:30;5.30;;;2.00;;
20729;SDS011;10526;50.850;12.928;2022-08-03T07:39:54;7.22;;;2.30;;
20729;SDS011;10526;50.850;12.928;2022-08-03T07:44:17;4.80;;;1.80;;
20729;SDS011;10526;50.850;12.928;2022-08-03T07:48:40;5.68;;;1.95;;
20729;SDS011;10526;50.850;12.928;2022-08-03T07:53:02;5.05;;;1.80;;
20729;SDS011;10526;50.850;12.928;2022-08-03T07:57:24;6.28;;;1.67;;
20729;SDS011;10526;50.850;12.928;2022-08-03T08:01:47;2.97;;;1.55;;
20729;SDS011;10526;50.850;12.928;2022-08-03T08:06:10;2.22;;;1.20;;
20729;SDS011;10526;50.850;12.928;2022-08-03T08:10:32;5.18;;;1.88;;
20729;SDS011;10526;50.850;12.928;2022-08-03T08:14:55;6.32;;;1.88;;
20729;SDS011;10526;50.850;12.928;2022-08-03T08:19:17;2.83;;;1.35;;
20729;SDS011;10526;50.850;12.928;2022-08-03T08:23:42;5.10;;;1.42;;
20729;SDS011;10526;50.850;12.928;2022-08-03T08:28:17;3.25;;;1.20;;
20729;SDS011;10526;50.850;12.928;2022-08-03T08:32:53;4.28;;;1.67;;
20729;SDS011;10526;50.850;12.928;2022-08-03T08:37:15;6.50;;;1.58;;
20729;SDS011;10526;50.850;12.928;2022-08-03T08:41:37;1.70;;;1.15;;
20729;SDS011;10526;50.850;12.928;2022-08-03T08:46:07;6.47;;;1.45;;
20729;SDS011;10526;50.850;12.928;2022-08-03T08:50:44;3.47;;;1.33;;
20729;SDS011;10526;50.850;12.928;2022-08-03T08:55:06;2.22;;;1.50;;
20729;SDS011;10526;50.850;12.928;2022-08-03T08:59:31;3.78;;;1.42;;
20729;SDS011;10526;50.850;12.928;2022-08-03T09:04:09;3.78;;;1.45;;
20729;SDS011;10526;50.850;12.928;2022-08-03T09:08:32;7.93;;;1.45;;
20729;SDS011;10526;50.850;12.928;2022-08-03T09:12:54;1.63;;;1.30;;
20729;SDS011;10526;50.850;12.928;2022-08-03T09:17:17;3.67;;;1.40;;
20729;SDS011;10526;50.850;12.928;2022-08-03T09:21:39;1.92;;;1.38;;
20729;SDS011;10526;50.850;12.928;2022-08-03T09:26:01;3.90;;;1.50;;
20729;SDS011;10526;50.850;12.928;2022-08-03T09:30:23;5.30;;;1.42;;
20729;SDS011;10526;50.850;12.928;2022-08-03T09:34:55;7.70;;;1.58;;
20729;SDS011;10526;50.850;12.928;2022-08-03T09:39:29;4.88;;;1.70;;
20729;SDS011;10526;50.850;12.928;2022-08-03T09:44:02;3.92;;;1.75;;
20729;SDS011;10526;50.850;12.928;2022-08-03T09:48:25;4.10;;;1.55;;
20729;SDS011;10526;50.850;12.928;2022-08-03T09:52:49;6.28;;;1.70;;
20729;SDS011;10526;50.850;12.928;2022-08-03T09:57:23;2.92;;;1.40;;
20729;SDS011;10526;50.850;12.928;2022-08-03T10:01:46;3.67;;;1.25;;
20729;SDS011;10526;50.850;12.928;2022-08-03T10:06:16;3.22;;;1.35;;
20729;SDS011;10526;50.850;12.928;2022-08-03T10:10:49;3.90;;;1.40;;
20729;SDS011;10526;50.850;12.928;2022-08-03T10:15:18;5.07;;;1.30;;
20729;SDS011;10526;50.850;12.928;2022-08-03T10:20:00;3.10;;;1.38;;
20729;SDS011;10526;50.850;12.928;2022-08-03T10:24:24;2.75;;;1.30;;
20729;SDS011;10526;50.850;12.928;2022-08-03T10:28:49;2.28;;;1.10;;
20729;SDS011;10526;50.850;12.928;2022-08-03T10:33:20;4.22;;;1.30;;
20729;SDS011;10526;50.850;12.928;2022-08-03T10:38:11;2.60;;;1.20;;
20729;SDS011;10526;50.850;12.928;2022-08-03T10:42:39;3.85;;;1.55;;
20729;SDS011;10526;50.850;12.928;2022-08-03T10:47:05;3.20;;;1.60;;
20729;SDS011;10526;50.850;12.928;2022-08-03T10:51:29;4.15;;;1.40;;
20729;SDS011;10526;50.850;12.928;2022-08-03T10:55:53;3.75;;;1.15;;
20729;SDS011;10526;50.850;12.928;2022-08-03T11:00:47;3.55;;;1.20;;
20729;SDS011;10526;50.850;12.928;2022-08-03T11:05:24;3.17;;;1.27;;
20729;SDS011;10526;50.850;12.928;2022-08-03T11:09:54;2.38;;;1.10;;
20729;SDS011;10526;50.850;12.928;2022-08-03T11:14:18;2.60;;;0.95;;
20729;SDS011;10526;50.850;12.928;2022-08-03T11:18:57;4.13;;;1.55;;
20729;SDS011;10526;50.850;12.928;2022-08-03T11:28:26;2.97;;;1.40;;
20729;SDS011;10526;50.850;12.928;2022-08-03T11:37:19;3.95;;;1.73;;
20729;SDS011;10526;50.850;12.928;2022-08-03T11:41:51;2.10;;;1.42;;
20729;SDS011;10526;50.850;12.928;2022-08-03T11:46:13;3.38;;;1.40;;
20729;SDS011;10526;50.850;12.928;2022-08-03T11:50:50;5.45;;;1.55;;
20729;SDS011;10526;50.850;12.928;2022-08-03T11:55:13;3.80;;;1.70;;
20729;SDS011;10526;50.850;12.928;2022-08-03T11:59:38;3.38;;;1.45;;
20729;SDS011;10526;50.850;12.928;2022-08-03T12:04:04;3.25;;;1.55;;
20729;SDS011;10526;50.850;12.928;2022-08-03T12:12:53;5.20;;;1.80;;
20729;SDS011;10526;50.850;12.928;2022-08-03T12:17:17;5.78;;;1.60;;
20729;SDS011;10526;50.850;12.928;2022-08-03T12:21:47;5.15;;;1.85;;
20729;SDS011;10526;50.850;12.928;2022-08-03T12:26:17;4.55;;;2.00;;
20729;SDS011;10526;50.850;12.928;2022-08-03T12:30:39;5.47;;;2.00;;
20729;SDS011;10526;50.850;12.928;2022-08-03T12:35:01;2.10;;;1.52;;
20729;SDS011;10526;50.850;12.928;2022-08-03T12:39:26;2.15;;;1.30;;
20729;SDS011;10526;50.850;12.928;2022-08-03T12:43:51;5.38;;;2.00;;
20729;SDS011;10526;50.850;12.928;2022-08-03T12:48:14;4.03;;;1.88;;
20729;SDS011;10526;50.850;12.928;2022-08-03T12:52:43;3.47;;;1.95;;
20729;SDS011;10526;50.850;12.928;2022-08-03T12:57:06;2.88;;;1.70;;
20729;SDS011;10526;50.850;12.928;2022-08-03T13:01:36;5.15;;;1.73;;
20729;SDS011;10526;50.850;12.928;2022-08-03T13:06:24;3.90;;;2.00;;
20729;SDS011;10526;50.850;12.928;2022-08-03T13:10:47;4.25;;;2.08;;
20729;SDS011;10526;50.850;12.928;2022-08-03T13:15:10;4.43;;;1.85;;
20729;SDS011;10526;50.850;12.928;2022-08-03T13:19:35;2.47;;;1.73;;
20729;SDS011;10526;50.850;12.928;2022-08-03T13:23:59;4.20;;;1.50;;
20729;SDS011;10526;50.850;12.928;2022-08-03T13:28:21;4.53;;;1.70;;
20729;SDS011;10526;50.850;12.928;2022-08-03T13:32:43;2.85;;;1.73;;
20729;SDS011;10526;50.850;12.928;2022-08-03T13:37:05;5.53;;;1.95;;
20729;SDS011;10526;50.850;12.928;2022-08-03T13:41:30;6.95;;;2.47;;
20729;SDS011;10526;50.850;12.928;2022-08-03T13:45:53;2.72;;;1.98;;
20729;SDS011;10526;50.850;12.928;2022-08-03T13:50:18;4.82;;;2.20;;
20729;SDS011;10526;50.850;12.928;2022-08-03T13:54:40;4.95;;;2.03;;
20729;SDS011;10526;50.850;12.928;2022-08-03T13:59:07;2.92;;;1.80;;
20729;SDS011;10526;50.850;12.928;2022-08-03T14:03:31;8.52;;;2.08;;
20729;SDS011;10526;50.850;12.928;2022-08-03T14:07:53;5.28;;;2.00;;
20729;SDS011;10526;50.850;12.928;2022-08-03T14:12:25;4.20;;;2.10;;
20729;SDS011;10526;50.850;12.928;2022-08-03T14:16:47;3.10;;;1.90;;
20729;SDS011;10526;50.850;12.928;2022-08-03T14:21:10;5.15;;;1.80;;
20729;SDS011;10526;50.850;12.928;2022-08-03T14:25:33;2.47;;;1.73;;
20729;SDS011;10526;50.850;12.928;2022-08-03T14:30:12;2.45;;;1.92;;
20729;SDS011;10526;50.850;12.928;2022-08-03T14:34:35;2.13;;;1.70;;
20729;SDS011;10526;50.850;12.928;2022-08-03T14:38:57;2.83;;;1.90;;
20729;SDS011;10526;50.850;12.928;2022-08-03T14:43:21;9.30;;;4.15;;
20729;SDS011;10526;50.850;12.928;2022-08-03T14:47:44;4.28;;;2.03;;
20729;SDS011;10526;50.850;12.928;2022-08-03T14:52:25;3.65;;;2.00;;
20729;SDS011;10526;50.850;12.928;2022-08-03T14:56:47;6.57;;;1.98;;
20729;SDS011;10526;50.850;12.928;2022-08-03T15:01:10;3.10;;;1.80;;
20729;SDS011;10526;50.850;12.928;2022-08-03T15:05:53;5.03;;;2.00;;
20729;SDS011;10526;50.850;12.928;2022-08-03T15:10:17;4.43;;;2.25;;
20729;SDS011;10526;50.850;12.928;2022-08-03T15:14:47;8.20;;;2.15;;
20729;SDS011;10526;50.850;12.928;2022-08-03T15:19:09;2.85;;;2.00;;
20729;SDS011;10526;50.850;12.928;2022-08-03T15:23:51;4.40;;;1.90;;
20729;SDS011;10526;50.850;12.928;2022-08-03T15:28:14;4.88;;;2.45;;
20729;SDS011;10526;50.850;12.928;2022-08-03T15:32:36;13.13;;;5.00;;
20729;SDS011;10526;50.850;12.928;2022-08-03T15:36:58;4.80;;;2.15;;
20729;SDS011;10526;50.850;12.928;2022-08-03T15:41:20;7.25;;;2.03;;
20729;SDS011;10526;50.850;12.928;2022-08-03T15:45:42;4.63;;;2.20;;
20729;SDS011;10526;50.850;12.928;2022-08-03T15:50:05;4.13;;;2.00;;
20729;SDS011;10526;50.850;12.928;2022-08-03T15:54:29;3.58;;;2.10;;
20729;SDS011;10526;50.850;12.928;2022-08-03T15:58:51;4.30;;;2.25;;
20729;SDS011;10526;50.850;12.928;2022-08-03T16:03:33;5.13;;;2.03;;
20729;SDS011;10526;50.850;12.928;2022-08-03T16:07:55;4.35;;;1.85;;
20729;SDS011;10526;50.850;12.928;2022-08-03T16:12:23;5.88;;;2.08;;
20729;SDS011;10526;50.850;12.928;2022-08-03T16:16:46;7.38;;;2.30;;
20729;SDS011;10526;50.850;12.928;2022-08-03T16:21:08;4.63;;;1.98;;
20729;SDS011;10526;50.850;12.928;2022-08-03T16:25:37;4.72;;;2.30;;
20729;SDS011;10526;50.850;12.928;2022-08-03T16:30:00;4.78;;;2.38;;
20729;SDS011;10526;50.850;12.928;2022-08-03T16:34:24;4.00;;;2.30;;
20729;SDS011;10526;50.850;12.928;2022-08-03T16:38:48;7.07;;;2.17;;
20729;SDS011;10526;50.850;12.928;2022-08-03T16:43:11;8.38;;;2.30;;
20729;SDS011;10526;50.850;12.928;2022-08-03T16:47:38;5.18;;;2.42;;
20729;SDS011;10526;50.850;12.928;2022-08-03T16:52:00;5.13;;;2.33;;
20729;SDS011;10526;50.850;12.928;2022-08-03T16:56:22;7.05;;;2.20;;
20729;SDS011;10526;50.850;12.928;2022-08-03T17:00:45;8.75;;;3.00;;
20729;SDS011;10526;50.850;12.928;2022-08-03T17:05:11;5.40;;;2.47;;
20729;SDS011;10526;50.850;12.928;2022-08-03T17:09:33;5.32;;;2.33;;
20729;SDS011;10526;50.850;12.928;2022-08-03T17:13:58;5.97;;;2.20;;
20729;SDS011;10526;50.850;12.928;2022-08-03T17:18:25;7.22;;;2.85;;
20729;SDS011;10526;50.850;12.928;2022-08-03T17:22:54;7.20;;;2.30;;
20729;SDS011;10526;50.850;12.928;2022-08-03T17:27:50;4.70;;;2.42;;
20729;SDS011;10526;50.850;12.928;2022-08-03T17:32:33;5.13;;;2.55;;
20729;SDS011;10526;50.850;12.928;2022-08-03T17:37:02;4.90;;;2.53;;
20729;SDS011;10526;50.850;12.928;2022-08-03T17:41:26;16.55;;;7.97;;
20729;SDS011;10526;50.850;12.928;2022-08-03T17:45:53;5.30;;;2.40;;
20729;SDS011;10526;50.850;12.928;2022-08-03T17:50:15;5.43;;;2.05;;
20729;SDS011;10526;50.850;12.928;2022-08-03T17:55:07;2.88;;;2.03;;
20729;SDS011;10526;50.850;12.928;2022-08-03T18:00:05;7.95;;;2.58;;
20729;SDS011;10526;50.850;12.928;2022-08-03T18:05:09;7.05;;;2.08;;
20729;SDS011;10526;50.850;12.928;2022-08-03T18:09:37;10.20;;;2.20;;
20729;SDS011;10526;50.850;12.928;2022-08-03T18:14:30;5.47;;;2.40;;
20729;SDS011;10526;50.850;12.928;2022-08-03T18:19:21;6.20;;;2.42;;
20729;SDS011;10526;50.850;12.928;2022-08-03T18:24:04;11.43;;;2.30;;
20729;SDS011;10526;50.850;12.928;2022-08-03T18:28:29;5.38;;;2.08;;
20729;SDS011;10526;50.850;12.928;2022-08-03T18:32:54;3.28;;;1.73;;
20729;SDS011;10526;50.850;12.928;2022-08-03T18:37:37;4.70;;;2.17;;
20729;SDS011;10526;50.850;12.928;2022-08-03T18:42:12;7.03;;;2.05;;
20729;SDS011;10526;50.850;12.928;2022-08-03T18:46:53;4.78;;;2.25;;
20729;SDS011;10526;50.850;12.928;2022-08-03T18:51:37;6.35;;;2.90;;
20729;SDS011;10526;50.850;12.928;2022-08-03T19:01:25;10.73;;;2.42;;
20729;SDS011;10526;50.850;12.928;2022-08-03T19:06:20;5.82;;;2.42;;
20729;SDS011;10526;50.850;12.928;2022-08-03T19:10:47;6.70;;;2.83;;
20729;SDS011;10526;50.850;12.928;2022-08-03T19:15:21;6.00;;;2.22;;
20729;SDS011;10526;50.850;12.928;2022-08-03T19:20:02;7.65;;;2.65;;
20729;SDS011;10526;50.850;12.928;2022-08-03T19:24:26;11.70;;;2.15;;
20729;SDS011;10526;50.850;12.928;2022-08-03T19:28:51;6.05;;;2.17;;
20729;SDS011;10526;50.850;12.928;2022-08-03T19:33:18;4.03;;;2.00;;
20729;SDS011;10526;50.850;12.928;2022-08-03T19:37:42;15.75;;;2.20;;
20729;SDS011;10526;50.850;12.928;2022-08-03T19:42:06;5.93;;;2.40;;
20729;SDS011;10526;50.850;12.928;2022-08-03T19:46:48;9.35;;;2.53;;
20729;SDS011;10526;50.850;12.928;2022-08-03T19:51:16;10.68;;;2.50;;
20729;SDS011;10526;50.850;12.928;2022-08-03T19:55:47;6.43;;;2.45;;
20729;SDS011;10526;50.850;12.928;2022-08-03T20:00:11;9.32;;;2.58;;
20729;SDS011;10526;50.850;12.928;2022-08-03T20:04:35;5.50;;;2.40;;
20729;SDS011;10526;50.850;12.928;2022-08-03T20:08:59;6.55;;;2.80;;
20729;SDS011;10526;50.850;12.928;2022-08-03T20:13:22;7.50;;;2.35;;
20729;SDS011;10526;50.850;12.928;2022-08-03T20:17:48;5.55;;;2.40;;
20729;SDS011;10526;50.850;12.928;2022-08-03T20:22:25;5.22;;;2.42;;
20729;SDS011;10526;50.850;12.928;2022-08-03T20:26:54;7.50;;;2.22;;
20729;SDS011;10526;50.850;12.928;2022-08-03T20:31:21;8.55;;;2.65;;
20729;SDS011;10526;50.850;12.928;2022-08-03T20:35:55;4.38;;;2.30;;
20729;SDS011;10526;50.850;12.928;2022-08-03T20:40:18;11.10;;;2.78;;
20729;SDS011;10526;50.850;12.928;2022-08-03T20:44:41;7.18;;;2.28;;
20729;SDS011;10526;50.850;12.928;2022-08-03T20:49:19;7.88;;;3.20;;
20729;SDS011;10526;50.850;12.928;2022-08-03T20:53:44;4.90;;;2.40;;
20729;SDS011;10526;50.850;12.928;2022-08-03T20:58:20;7.57;;;2.30;;
20729;SDS011;10526;50.850;12.928;2022-08-03T21:02:43;8.35;;;2.78;;
20729;SDS011;10526;50.850;12.928;2022-08-03T21:07:06;6.43;;;2.72;;
20729;SDS011;10526;50.850;12.928;2022-08-03T21:11:38;7.85;;;2.47;;
20729;SDS011;10526;50.850;12.928;2022-08-03T21:16:03;7.90;;;2.83;;
20729;SDS011;10526;50.850;12.928;2022-08-03T21:20:35;10.05;;;3.78;;
20729;SDS011;10526;50.850;12.928;2022-08-03T21:25:00;7.10;;;2.50;;
20729;SDS011;10526;50.850;12.928;2022-08-03T21:29:28;8.48;;;3.25;;
20729;SDS011;10526;50.850;12.928;2022-08-03T21:34:16;7.57;;;2.60;;
20729;SDS011;10526;50.850;12.928;2022-08-03T21:38:40;7.03;;;3.08;;
20729;SDS011;10526;50.850;12.928;2022-08-03T21:43:19;8.90;;;3.17;;
20729;SDS011;10526;50.850;12.928;2022-08-03T21:47:43;8.13;;;3.10;;
20729;SDS011;10526;50.850;12.928;2022-08-03T21:52:07;7.53;;;3.20;;
20729;SDS011;10526;50.850;12.928;2022-08-03T21:56:40;6.20;;;3.20;;
20729;SDS011;10526;50.850;12.928;2022-08-03T22:01:08;12.63;;;3.65;;
20729;SDS011;10526;50.850;12.928;2022-08-03T22:05:32;8.65;;;3.78;;
20729;SDS011;10526;50.850;12.928;2022-08-03T22:10:04;6.15;;;3.17;;
20729;SDS011;10526;50.850;12.928;2022-08-03T22:14:27;9.88;;;3.20;;
20729;SDS011;10526;50.850;12.928;2022-08-03T22:18:53;7.57;;;3.40;;
20729;SDS011;10526;50.850;12.928;2022-08-03T22:23:16;8.65;;;3.50;;
20729;SDS011;10526;50.850;12.928;2022-08-03T22:27:45;8.73;;;3.88;;
20729;SDS011;10526;50.850;12.928;2022-08-03T22:32:13;7.38;;;3.42;;
20729;SDS011;10526;50.850;12.928;2022-08-03T22:36:35;8.48;;;3.42;;
20729;SDS011;10526;50.850;12.928;2022-08-03T22:40:58;9.40;;;4.00;;
20729;SDS011;10526;50.850;12.928;2022-08-03T22:45:21;4.30;;;2.78;;
20729;SDS011;10526;50.850;12.928;2022-08-03T22:50:03;6.75;;;3.10;;
20729;SDS011;10526;50.850;12.928;2022-08-03T22:54:51;7.65;;;3.22;;
20729;SDS011;10526;50.850;12.928;2022-08-03T22:59:14;10.60;;;3.38;;
20729;SDS011;10526;50.850;12.928;2022-08-03T23:03:57;15.05;;;6.03;;
20729;SDS011;10526;50.850;12.928;2022-08-03T23:08:23;9.90;;;3.75;;
20729;SDS011;10526;50.850;12.928;2022-08-03T23:12:49;7.90;;;3.58;;
20729;SDS011;10526;50.850;12.928;2022-08-03T23:17:14;10.50;;;3.88;;
20729;SDS011;10526;50.850;12.928;2022-08-03T23:21:36;12.07;;;4.00;;
20729;SDS011;10526;50.850;12.928;2022-08-03T23:26:20;10.77;;;3.63;;
20729;SDS011;10526;50.850;12.928;2022-08-03T23:30:43;13.63;;;4.15;;
20729;SDS011;10526;50.850;12.928;2022-08-03T23:35:07;13.50;;;4.15;;
20729;SDS011;10526;50.850;12.928;2022-08-03T23:40:08;12.05;;;3.67;;
20729;SDS011;10526;50.850;12.928;2022-08-03T23:44:33;11.88;;;3.70;;
20729;SDS011;10526;50.850;12.928;2022-08-03T23:48:58;10.43;;;4.00;;
20729;SDS011;10526;50.850;12.928;2022-08-03T23:53:24;8.07;;;3.88;;
20729;SDS011;10526;50.850;12.928;2022-08-03T23:58:45;7.32;;;3.47;;
